Time;durP1;ratioP1;P1;durP2;ratioP2;P2;SDS_P1;SDS_P2;PMS_P1;PMS_P2;Temp;Humidity;BMP_temperature;BMP_pressure;BME280_temperature;BME280_humidity;BME280_pressure;Samples;Min_cycle;Max_cycle;Signal;HPM_P1;HPM_P2
2022/01/16 00:00:40;;;;;;;23.35;17.77;;;;;;;-2.52;100.00;96399.38;5030709;28;24501;-75
2022/01/16 00:05:51;;;;;;;32.08;22.38;;;;;;;-2.63;100.00;96444.19;5030293;28;24802;-77
2022/01/16 00:08:19;;;;;;;28.70;20.67;;;;;;;-2.97;100.00;96439.09;5030538;28;25010;-76
2022/01/16 00:10:45;;;;;;;31.23;19.83;;;;;;;-3.09;100.00;96443.31;5030719;28;24531;-77
2022/01/16 00:13:12;;;;;;;34.10;20.83;;;;;;;-3.15;100.00;96451.78;5030499;28;24774;-76
2022/01/16 00:15:38;;;;;;;27.60;20.38;;;;;;;-2.93;100.00;96433.22;5030585;28;24789;-76
2022/01/16 00:18:10;;;;;;;36.30;23.85;;;;;;;-2.76;100.00;96427.28;5030317;28;24968;-76
2022/01/16 00:20:37;;;;;;;45.20;24.10;;;;;;;-2.79;100.00;96445.03;5030506;28;24424;-76
2022/01/16 00:23:06;;;;;;;46.03;19.25;;;;;;;-3.04;100.00;96442.50;5030640;28;24483;-76
2022/01/16 00:25:33;;;;;;;46.65;19.85;;;;;;;-3.27;100.00;96427.25;5030062;28;24526;-76
2022/01/16 00:28:00;;;;;;;52.38;18.60;;;;;;;-3.30;100.00;96427.25;5030520;28;24424;-76
2022/01/16 00:30:26;;;;;;;30.55;18.67;;;;;;;-3.09;100.00;96438.25;5030566;28;24498;-76
2022/01/16 00:32:54;;;;;;;27.40;17.77;;;;;;;-2.97;100.00;96433.19;5030541;28;24424;-76
2022/01/16 00:35:20;;;;;;;22.20;17.38;;;;;;;-2.89;100.00;96415.44;5030404;28;24805;-76
2022/01/16 00:37:48;;;;;;;32.65;17.83;;;;;;;-3.13;100.00;96429.81;5030353;28;24805;-76
2022/01/16 00:40:15;;;;;;;68.05;16.65;;;;;;;-3.27;100.00;96442.44;5030395;28;24416;-76
2022/01/16 00:42:42;;;;;;;18.73;15.45;;;;;;;-3.15;100.00;96459.38;5030143;28;24959;-76
2022/01/16 00:45:10;;;;;;;23.40;16.47;;;;;;;-2.86;100.00;96476.28;5030350;28;24423;-76
2022/01/16 00:47:37;;;;;;;34.65;19.27;;;;;;;-2.34;100.00;96446.69;5029895;28;24857;-76
2022/01/16 00:50:04;;;;;;;27.05;19.17;;;;;;;-2.33;100.00;96458.53;5030340;28;24840;-76
2022/01/16 00:52:30;;;;;;;22.15;17.08;;;;;;;-2.52;100.00;96439.09;5030429;28;24431;-75
2022/01/16 00:55:02;;;;;;;27.95;18.27;;;;;;;-2.82;100.00;96468.69;5029892;28;24809;-76
2022/01/16 00:57:29;;;;;;;26.63;18.88;;;;;;;-3.11;100.00;96450.94;5030137;28;24424;-77
2022/01/16 00:59:57;;;;;;;30.95;18.25;;;;;;;-3.21;100.00;96474.56;5030326;28;24416;-76
2022/01/16 01:02:23;;;;;;;47.92;20.02;;;;;;;-3.38;100.00;96482.09;5030007;28;24422;-76
2022/01/16 01:04:49;;;;;;;25.48;18.45;;;;;;;-3.21;100.00;96474.56;5030266;28;24424;-76
2022/01/16 01:07:17;;;;;;;51.85;15.63;;;;;;;-2.92;100.00;96454.34;5030111;28;24423;-75
2022/01/16 01:09:43;;;;;;;28.70;19.58;;;;;;;-2.42;100.00;96434.88;5030118;28;24448;-76
2022/01/16 01:12:20;;;;;;;33.45;17.48;;;;;;;-2.19;100.00;96445.81;5030134;28;24455;-76
2022/01/16 01:15:05;;;;;;;24.95;18.30;;;;;;;-2.65;100.00;96453.47;5033234;28;24518;-76
2022/01/16 01:17:36;;;;;;;46.67;18.25;;;;;;;-3.19;100.00;96448.41;5033566;28;24427;-76
2022/01/16 01:20:04;;;;;;;73.63;18.65;;;;;;;-3.54;100.00;96425.50;5033758;28;24430;-76
2022/01/16 01:22:31;;;;;;;33.33;17.97;;;;;;;-3.52;100.00;96360.53;5033565;28;24486;-76
2022/01/16 01:24:57;;;;;;;51.95;15.82;;;;;;;-2.91;100.00;96341.97;5033441;28;24436;-76
2022/01/16 01:27:29;;;;;;;35.47;15.05;;;;;;;-3.00;100.00;96357.19;5033110;28;24420;-76
2022/01/16 01:30:01;;;;;;;35.33;15.43;;;;;;;-2.97;100.00;96364.75;5033526;28;24443;-76
2022/01/16 01:32:27;;;;;;;36.95;12.80;;;;;;;-3.20;100.00;96369.84;5033500;28;24442;-76
2022/01/16 01:34:55;;;;;;;53.45;14.43;;;;;;;-3.34;100.00;96381.66;5033345;28;24439;-77
2022/01/16 01:37:21;;;;;;;24.85;13.57;;;;;;;-3.17;100.00;96412.91;5033178;28;24423;-76
2022/01/16 01:39:48;;;;;;;36.28;12.98;;;;;;;-3.12;100.00;96420.50;5033057;28;24423;-77
2022/01/16 01:42:16;;;;;;;15.40;13.55;;;;;;;-3.06;100.00;96445.88;5033372;28;24431;-76
2022/01/16 01:52:56;;;;;;;25.10;16.50;;;;;;;-2.37;100.00;96477.16;5032922;28;24403;-76
2022/01/16 01:55:23;;;;;;;25.80;17.40;;;;;;;-2.56;100.00;96475.44;5032936;28;24436;-76
2022/01/16 01:57:50;;;;;;;26.52;17.10;;;;;;;-2.57;100.00;96463.63;5032437;28;24486;-76
2022/01/16 02:00:18;;;;;;;18.52;15.27;;;;;;;-2.26;100.00;96474.59;5033009;28;24419;-77
2022/01/16 02:02:57;;;;;;;23.50;16.58;;;;;;;-2.21;100.00;96483.03;5033008;28;24428;-76
2022/01/16 02:05:25;;;;;;;22.45;16.65;;;;;;;-2.48;100.00;96479.69;5032795;28;24485;-76
2022/01/16 02:07:51;;;;;;;42.15;17.92;;;;;;;-2.66;100.00;96484.75;5032526;28;24422;-76
2022/01/16 02:10:18;;;;;;;23.98;15.85;;;;;;;-2.82;100.00;96501.63;5032654;28;24452;-74
2022/01/16 02:12:47;;;;;;;19.90;16.42;;;;;;;-2.91;100.00;96506.72;5032693;28;24430;-76
2022/01/16 02:15:35;;;;;;;19.50;16.15;;;;;;;-3.02;100.00;96519.34;5032280;28;24435;-76
2022/01/16 02:29:36;;;;;;;26.35;19.30;;;;;;;-2.84;100.00;96480.53;5032186;28;24483;-76
2022/01/16 02:32:01;;;;;;;19.95;17.67;;;;;;;-2.65;100.00;96470.41;5032054;28;24428;-76
2022/01/16 02:34:32;;;;;;;23.93;18.60;;;;;;;-2.78;100.00;96464.47;5032348;28;24442;-76
2022/01/16 02:37:02;;;;;;;26.02;17.63;;;;;;;-2.59;100.00;96466.16;5032093;28;24794;-76
2022/01/16 02:39:34;;;;;;;29.30;17.73;;;;;;;-2.97;100.00;96459.38;5032279;28;24763;-76
2022/01/16 02:42:01;;;;;;;25.10;18.10;;;;;;;-3.12;100.00;96464.44;5032351;28;24427;-76
2022/01/16 02:44:34;;;;;;;42.30;16.90;;;;;;;-3.54;100.00;96466.03;5032009;28;24423;-76
2022/01/16 02:47:01;;;;;;;70.35;17.58;;;;;;;-3.83;100.00;96457.47;5031532;28;24995;-76
2022/01/16 02:49:30;;;;;;;96.22;18.40;;;;;;;-4.20;100.00;96449.69;5031908;28;24451;-76
2022/01/16 02:51:59;;;;;;;70.43;16.73;;;;;;;-4.22;100.00;96441.28;5031940;28;24427;-76
2022/01/16 02:54:28;;;;;;;50.28;16.65;;;;;;;-4.25;100.00;96428.59;5031804;28;24485;-76
2022/01/16 02:56:56;;;;;;;63.17;15.30;;;;;;;-4.28;100.00;96434.50;5031605;28;24513;-76
2022/01/16 02:59:22;;;;;;;21.38;15.55;;;;;;;-4.03;100.00;96425.34;5031579;28;24901;-76
2022/01/16 03:01:50;;;;;;;16.77;15.07;;;;;;;-3.90;100.00;96424.53;5031809;28;24435;-76
2022/01/16 03:04:17;;;;;;;28.73;15.75;;;;;;;-3.75;100.00;96426.28;5031682;28;24428;-77
2022/01/16 03:06:44;;;;;;;44.47;16.40;;;;;;;-3.71;100.00;96422.06;5031428;28;24435;-76
2022/01/16 03:09:10;;;;;;;87.63;17.30;;;;;;;-3.84;100.00;96427.94;5031661;28;24428;-77
2022/01/16 03:11:40;;;;;;;43.63;15.55;;;;;;;-3.75;100.00;96420.38;5031410;28;24450;-76
2022/01/16 03:14:11;;;;;;;16.83;14.88;;;;;;;-3.68;100.00;96424.63;5031216;28;24442;-76
2022/01/16 03:16:41;;;;;;;32.13;17.65;;;;;;;-3.53;100.00;96429.72;5031382;28;24422;-76
2022/01/16 03:21:54;;;;;;;30.92;15.55;;;;;;;-3.30;100.00;96422.19;5031196;28;24395;-76
2022/01/16 03:24:24;;;;;;;21.70;14.75;;;;;;;-3.16;100.00;96402.78;5031308;28;24522;-76
2022/01/16 03:26:52;;;;;;;31.23;16.05;;;;;;;-2.92;100.00;96398.56;5031342;28;24514;-76
2022/01/16 03:29:19;;;;;;;51.38;16.38;;;;;;;-2.73;100.00;96405.31;5031265;28;24432;-76
2022/01/16 03:31:46;;;;;;;50.33;14.85;;;;;;;-2.86;100.00;96402.78;5031329;28;24964;-76
2022/01/16 03:34:12;;;;;;;35.63;14.02;;;;;;;-3.00;100.00;96393.50;5030763;28;24965;-75
2022/01/16 03:36:39;;;;;;;70.07;13.87;;;;;;;-2.98;100.00;96406.16;5030417;28;24494;-75
2022/01/16 03:39:05;;;;;;;25.55;13.52;;;;;;;-3.07;100.00;96404.47;5031123;28;24427;-77
2022/01/16 03:41:34;;;;;;;43.92;13.73;;;;;;;-3.01;100.00;96413.75;5030813;28;24945;-76
2022/01/16 03:44:02;;;;;;;47.38;14.82;;;;;;;-3.04;100.00;96413.75;5030984;28;24463;-76
2022/01/16 03:46:34;;;;;;;81.03;14.85;;;;;;;-3.04;100.00;96424.75;5030451;28;24945;-76
2022/01/16 03:49:03;;;;;;;58.83;15.10;;;;;;;-3.01;100.00;96426.44;5030974;28;24416;-76
2022/01/16 03:51:29;;;;;;;50.10;14.05;;;;;;;-3.12;100.00;96435.72;5030946;28;24480;-76
2022/01/16 03:53:55;;;;;;;47.20;14.35;;;;;;;-3.09;100.00;96431.50;5030937;28;24430;-76
2022/01/16 03:56:22;;;;;;;68.30;15.50;;;;;;;-3.00;100.00;96428.97;5030534;28;24436;-76
2022/01/16 03:58:49;;;;;;;37.55;15.85;;;;;;;-3.02;100.00;96429.81;5030916;28;24490;-77
2022/01/16 04:01:15;;;;;;;27.95;15.55;;;;;;;-3.04;100.00;96424.75;5030786;28;24424;-76
2022/01/16 04:03:43;;;;;;;41.53;15.30;;;;;;;-3.22;100.00;96429.81;5030408;28;24431;-76
2022/01/16 04:06:09;;;;;;;34.03;16.55;;;;;;;-2.97;100.00;96430.66;5030518;28;24885;-76
2022/01/16 04:08:36;;;;;;;34.40;14.82;;;;;;;-3.00;100.00;96431.53;5030771;28;24774;-76
2022/01/16 04:11:02;;;;;;;19.13;14.52;;;;;;;-3.13;100.00;96434.03;5030733;28;24805;-76
2022/01/16 04:13:31;;;;;;;17.55;13.52;;;;;;;-3.09;100.00;96428.97;5030138;28;25090;-77
2022/01/16 04:15:57;;;;;;;46.72;13.68;;;;;;;-3.14;100.00;96420.53;5030177;28;24963;-76
2022/01/16 04:18:24;;;;;;;79.13;14.07;;;;;;;-3.41;100.00;96434.00;5030549;28;24427;-76
2022/01/16 04:20:52;;;;;;;73.25;13.18;;;;;;;-3.54;100.00;96437.34;5030547;28;24419;-76
2022/01/16 04:23:19;;;;;;;75.53;12.87;;;;;;;-3.42;100.00;96432.28;5030296;28;24506;-76
2022/01/16 04:25:45;;;;;;;21.40;13.15;;;;;;;-3.34;100.00;96420.47;5030226;28;24439;-76
2022/01/16 04:28:11;;;;;;;26.10;13.65;;;;;;;-3.23;100.00;96413.75;5030672;28;24431;-76
2022/01/16 04:30:38;;;;;;;36.60;14.35;;;;;;;-3.36;100.00;96431.47;5030123;28;24988;-77
2022/01/16 04:33:04;;;;;;;61.90;14.80;;;;;;;-3.61;100.00;96436.47;5030133;28;25039;-77
2022/01/16 04:35:31;;;;;;;35.17;14.77;;;;;;;-3.54;100.00;96435.63;5030388;28;24492;-77
2022/01/16 04:37:59;;;;;;;21.23;13.40;;;;;;;-3.35;100.00;96423.84;5030355;28;24428;-76
2022/01/16 04:40:25;;;;;;;18.75;14.75;;;;;;;-3.26;100.00;96418.81;5030447;28;24427;-77
2022/01/16 04:45:36;;;;;;;18.35;13.70;;;;;;;-3.28;100.00;96420.50;5029993;28;24987;-76
2022/01/16 04:48:03;;;;;;;59.03;14.70;;;;;;;-3.32;100.00;96416.28;5011466;28;24482;-76
2022/01/16 04:50:30;;;;;;;57.67;13.57;;;;;;;-3.47;100.00;96424.69;5014372;28;24458;-77
2022/01/16 04:52:56;;;;;;;61.15;14.88;;;;;;;-3.52;100.00;96433.09;5033233;28;24428;-76
2022/01/16 04:55:25;;;;;;;72.50;14.00;;;;;;;-3.53;100.00;96437.31;5033684;28;24980;-76
2022/01/16 04:57:51;;;;;;;38.42;12.55;;;;;;;-3.40;100.00;96433.16;5033957;28;24546;-76
2022/01/16 05:00:18;;;;;;;39.72;13.45;;;;;;;-3.21;100.00;96421.34;5033744;28;24439;-77
2022/01/16 05:02:45;;;;;;;17.75;13.63;;;;;;;-3.15;100.00;96421.38;5033992;28;24431;-76
2022/01/16 05:05:12;;;;;;;65.32;15.45;;;;;;;-3.29;100.00;96436.53;5033849;28;24431;-76
2022/01/16 05:07:38;;;;;;;27.60;13.30;;;;;;;-3.37;100.00;96430.63;5033656;28;24420;-76
2022/01/16 05:10:06;;;;;;;150.63;16.45;;;;;;;-3.53;100.00;96426.34;5033636;28;24431;-76
2022/01/16 05:12:37;;;;;;;123.70;16.05;;;;;;;-3.78;100.00;96433.88;5033735;28;24511;-76
2022/01/16 05:17:50;;;;;;;19.05;14.82;;;;;;;-3.67;100.00;96432.25;5013440;28;24763;-76
2022/01/16 05:20:16;;;;;;;65.00;16.58;;;;;;;-3.47;100.00;96418.78;5013869;28;24826;-76
2022/01/16 05:22:43;;;;;;;114.95;17.38;;;;;;;-3.71;100.00;96420.41;5013644;28;24491;-77
2022/01/16 05:25:12;;;;;;;40.65;15.88;;;;;;;-3.58;100.00;96428.03;5013636;28;24437;-76
2022/01/16 05:27:40;;;;;;;117.93;16.83;;;;;;;-3.82;100.00;96427.13;5013743;28;24565;-76
2022/01/16 05:30:08;;;;;;;129.43;16.95;;;;;;;-3.96;100.00;96428.75;5013696;28;24436;-76
2022/01/16 05:32:35;;;;;;;87.78;16.38;;;;;;;-3.85;100.00;96427.13;5013432;28;24977;-76
2022/01/16 05:35:01;;;;;;;41.00;15.25;;;;;;;-3.85;100.00;96423.75;5024658;28;25047;-76
2022/01/16 05:37:28;;;;;;;135.50;17.70;;;;;;;-3.95;100.00;96438.88;5032878;28;24975;-76
2022/01/16 05:39:55;;;;;;;83.28;16.88;;;;;;;-4.02;100.00;96449.81;5033293;28;24518;-77
2022/01/16 05:42:22;;;;;;;28.92;14.55;;;;;;;-3.87;100.00;96450.72;5032873;28;25027;-76
2022/01/16 05:44:49;;;;;;;16.85;14.98;;;;;;;-3.66;100.00;96443.22;5032545;28;24451;-76
2022/01/16 05:47:16;;;;;;;35.40;17.73;;;;;;;-3.60;100.00;96452.50;5032645;28;24984;-76
2022/01/16 05:49:42;;;;;;;25.38;14.98;;;;;;;-3.61;100.00;96450.81;5013139;28;24980;-76
2022/01/16 05:52:12;;;;;;;27.20;15.80;;;;;;;-3.61;100.00;96450.81;5013372;28;24989;-76
2022/01/16 05:54:38;;;;;;;100.68;16.38;;;;;;;-3.98;100.00;96448.13;5013296;28;24435;-76
2022/01/16 05:57:05;;;;;;;63.22;15.32;;;;;;;-3.97;100.00;96458.28;5041891;23;25012;-72
2022/01/16 05:59:32;;;;;;;29.35;15.27;;;;;;;-4.00;100.00;96443.06;5032518;28;24440;-72
2022/01/16 06:01:59;;;;;;;28.58;14.93;;;;;;;-3.98;100.00;96448.13;5032313;28;24956;-73
2022/01/16 06:04:26;;;;;;;20.90;16.58;;;;;;;-3.83;100.00;96452.41;5027119;28;24439;-73
2022/01/16 06:06:52;;;;;;;25.00;14.70;;;;;;;-3.79;100.00;96454.94;5025419;28;24439;-73
2022/01/16 06:09:19;;;;;;;35.50;14.32;;;;;;;-3.96;100.00;96459.97;5032829;28;24436;-73
2022/01/16 06:11:45;;;;;;;22.60;13.90;;;;;;;-3.98;100.00;96459.09;5032729;28;24455;-72
2022/01/16 06:14:12;;;;;;;19.53;14.27;;;;;;;-3.95;100.00;96459.13;5032803;28;24478;-75
2022/01/16 06:16:38;;;;;;;15.13;13.00;;;;;;;-3.82;100.00;96465.09;5032407;28;24435;-72
2022/01/16 06:19:06;;;;;;;18.60;13.80;;;;;;;-3.73;100.00;96465.13;5032708;28;24426;-73
2022/01/16 06:21:32;;;;;;;15.37;13.33;;;;;;;-3.62;100.00;96465.16;5032313;28;24979;-74
2022/01/16 06:23:59;;;;;;;16.35;13.43;;;;;;;-3.53;100.00;96480.38;5032245;28;24435;-74
2022/01/16 06:26:25;;;;;;;17.40;13.35;;;;;;;-3.54;100.00;96491.34;5031981;28;24518;-74
2022/01/16 06:28:52;;;;;;;14.90;12.60;;;;;;;-3.42;100.00;96493.06;5032256;28;24789;-74
2022/01/16 06:31:18;;;;;;;14.00;11.82;;;;;;;-3.38;100.00;96481.25;5032107;28;24444;-75
2022/01/16 06:33:44;;;;;;;17.10;11.97;;;;;;;-3.37;100.00;96482.94;5032396;28;24419;-73
2022/01/16 06:36:12;;;;;;;13.68;11.40;;;;;;;-3.72;100.00;96481.97;5032025;28;24424;-74
2022/01/16 06:38:39;;;;;;;14.32;12.00;;;;;;;-3.78;100.00;96484.50;5032160;28;24427;-74
2022/01/16 06:41:05;;;;;;;13.20;11.80;;;;;;;-3.81;100.00;96486.19;5032050;28;24542;-72
2022/01/16 06:43:33;;;;;;;16.55;12.32;;;;;;;-4.02;100.00;96505.47;5032178;28;24416;-73
2022/01/16 06:46:00;;;;;;;18.52;12.52;;;;;;;-3.84;100.00;96499.66;5031504;28;24778;-73
2022/01/16 06:48:26;;;;;;;15.10;12.17;;;;;;;-3.92;100.00;96508.91;5031842;28;24524;-73
2022/01/16 06:50:53;;;;;;;14.57;11.23;;;;;;;-3.80;100.00;96514.00;5031533;28;25224;-73
2022/01/16 06:53:20;;;;;;;13.07;11.68;;;;;;;-3.76;100.00;96515.72;5031781;28;24415;-73
2022/01/16 06:55:47;;;;;;;14.68;13.18;;;;;;;-3.61;100.00;96514.94;5031362;28;24435;-73
2022/01/16 06:58:13;;;;;;;19.40;15.82;;;;;;;-3.47;100.00;96515.00;5031408;28;24837;-73
2022/01/16 07:00:40;;;;;;;24.85;15.50;;;;;;;-3.27;100.00;96520.97;5031431;28;24431;-73
2022/01/16 07:03:06;;;;;;;40.15;15.00;;;;;;;-3.51;100.00;96518.38;5031464;28;24789;-73
2022/01/16 07:05:33;;;;;;;28.27;16.75;;;;;;;-3.43;100.00;96519.25;5029965;28;24439;-73
2022/01/16 07:07:59;;;;;;;23.58;15.27;;;;;;;-3.59;100.00;96525.94;5031492;28;24439;-76
2022/01/16 07:10:27;;;;;;;20.10;14.98;;;;;;;-3.86;100.00;96525.78;5030843;28;24454;-73
2022/01/16 07:12:54;;;;;;;25.17;14.02;;;;;;;-3.75;100.00;96521.63;5031489;28;24451;-73
2022/01/16 07:15:20;;;;;;;17.85;15.95;;;;;;;-3.66;100.00;96517.47;5030935;28;24432;-73
2022/01/16 07:17:47;;;;;;;23.63;15.63;;;;;;;-3.87;100.00;96531.69;5031023;28;24432;-73
2022/01/16 07:20:15;;;;;;;17.08;14.23;;;;;;;-4.18;100.00;96519.72;5031376;28;24461;-73
2022/01/16 07:22:42;;;;;;;14.93;13.43;;;;;;;-4.08;100.00;96517.22;5031117;28;24418;-73
2022/01/16 07:25:09;;;;;;;18.25;14.50;;;;;;;-4.03;100.00;96518.13;5047151;28;24427;-75
2022/01/16 07:27:37;;;;;;;20.53;15.77;;;;;;;-4.00;100.00;96528.25;5054619;28;24419;-74
2022/01/16 07:30:04;;;;;;;23.83;20.05;;;;;;;-4.13;100.00;96529.84;5055064;28;24407;-74
2022/01/16 07:32:31;;;;;;;35.25;28.02;;;;;;;-4.05;100.00;96534.94;5051898;28;24485;-74
2022/01/16 07:34:58;;;;;;;19.15;16.23;;;;;;;-3.93;100.00;96533.38;5049854;28;24955;-74
2022/01/16 07:37:24;;;;;;;20.90;18.67;;;;;;;-4.14;100.00;96523.09;5030963;28;24486;-74
2022/01/16 07:39:50;;;;;;;16.98;15.18;;;;;;;-4.14;100.00;96526.47;5030796;28;24817;-74
2022/01/16 07:42:17;;;;;;;14.50;12.88;;;;;;;-4.18;100.00;96541.63;5030667;28;24963;-74
2022/01/16 07:44:45;;;;;;;17.52;12.52;;;;;;;-4.18;100.00;96549.22;5031059;28;24469;-74
2022/01/16 07:47:11;;;;;;;15.77;12.55;;;;;;;-4.17;100.00;96544.16;5030806;28;24494;-74
2022/01/16 07:49:38;;;;;;;16.30;13.05;;;;;;;-4.07;100.00;96539.19;5031070;28;24420;-73
2022/01/16 07:52:05;;;;;;;15.40;12.93;;;;;;;-4.09;100.00;96559.38;5031088;28;24809;-74
2022/01/16 07:54:31;;;;;;;14.63;12.33;;;;;;;-4.07;100.00;96575.44;5031040;28;24423;-74
2022/01/16 07:56:58;;;;;;;16.42;12.00;;;;;;;-3.99;100.00;96585.59;5030006;28;24435;-74
2022/01/16 07:59:24;;;;;;;17.55;11.70;;;;;;;-3.77;100.00;96579.00;5030866;28;24443;-74
2022/01/16 08:01:52;;;;;;;14.45;12.43;;;;;;;-3.71;100.00;96589.16;5030668;28;24419;-75
2022/01/16 08:04:18;;;;;;;17.17;14.30;;;;;;;-3.47;100.00;96594.34;5030638;28;24416;-74
2022/01/16 08:06:45;;;;;;;14.65;12.13;;;;;;;-2.83;100.00;96597.97;5029987;28;24431;-75
2022/01/16 08:09:11;;;;;;;17.02;13.57;;;;;;;-2.55;100.00;96593.81;5030387;28;24416;-75
2022/01/16 08:11:38;;;;;;;14.98;13.18;;;;;;;-2.40;100.00;96581.16;5030640;28;24451;-74
2022/01/16 08:14:04;;;;;;;18.70;13.23;;;;;;;-2.65;100.00;96592.94;5030792;28;24427;-74
2022/01/16 08:16:31;;;;;;;14.77;12.40;;;;;;;-2.60;100.00;96580.28;5030511;28;24763;-74
2022/01/16 08:18:58;;;;;;;16.23;12.65;;;;;;;-2.55;100.00;96571.84;5030817;28;24432;-74
2022/01/16 08:21:25;;;;;;;15.47;12.40;;;;;;;-2.34;100.00;96576.06;5030408;28;24419;-74
2022/01/16 08:23:51;;;;;;;14.57;12.93;;;;;;;-2.39;100.00;96589.59;5034221;28;24427;-74
2022/01/16 08:26:18;;;;;;;20.35;13.63;;;;;;;-2.28;100.00;96593.84;5034068;28;24790;-74
2022/01/16 08:28:45;;;;;;;15.50;13.32;;;;;;;-1.96;100.00;96600.63;5034531;28;24825;-74
2022/01/16 08:31:11;;;;;;;14.43;12.85;;;;;;;-1.99;100.00;96595.53;5034384;28;24430;-74
2022/01/16 08:33:38;;;;;;;18.27;13.80;;;;;;;-1.81;100.00;96600.59;5034278;28;24423;-75
2022/01/16 08:36:06;;;;;;;18.58;13.95;;;;;;;-1.69;100.00;96599.72;5033706;28;24535;-75
2022/01/16 08:38:33;;;;;;;16.00;14.30;;;;;;;-1.86;100.00;96601.44;5033978;28;24535;-74
2022/01/16 08:41:00;;;;;;;15.77;14.00;;;;;;;-1.80;100.00;96606.53;5034279;28;24505;-75
2022/01/16 08:43:28;;;;;;;19.08;14.45;;;;;;;-2.11;100.00;96611.63;5034083;28;24431;-75
2022/01/16 08:45:55;;;;;;;21.23;16.02;;;;;;;-2.15;100.00;96607.41;5033751;28;24439;-74
2022/01/16 08:48:21;;;;;;;21.83;17.23;;;;;;;-2.41;100.00;96617.53;5034004;28;24427;-74
2022/01/16 08:50:48;;;;;;;18.43;15.70;;;;;;;-2.60;100.00;96620.84;5034055;28;24517;-75
2022/01/16 08:53:16;;;;;;;20.13;15.23;;;;;;;-2.45;100.00;96628.47;5033748;28;24444;-74
2022/01/16 08:55:43;;;;;;;17.38;14.38;;;;;;;-2.57;100.00;96625.94;5033729;28;24455;-74
2022/01/16 08:58:09;;;;;;;16.55;14.13;;;;;;;-2.47;100.00;96630.19;5033510;28;24432;-73
2022/01/16 09:00:36;;;;;;;19.23;15.10;;;;;;;-2.39;100.00;96631.03;5041533;28;24431;-75
2022/01/16 09:03:03;;;;;;;17.50;15.43;;;;;;;-2.24;100.00;96613.28;5054243;28;24430;-74
2022/01/16 09:05:30;;;;;;;28.20;17.67;;;;;;;-2.26;100.00;96611.63;5048010;28;24443;-74
2022/01/16 09:07:57;;;;;;;26.08;20.48;;;;;;;-2.12;100.00;96622.59;5033246;28;24440;-74
2022/01/16 09:10:25;;;;;;;22.80;19.90;;;;;;;-1.81;100.00;96615.84;5033814;28;25027;-74
2022/01/16 09:12:51;;;;;;;28.90;21.33;;;;;;;-1.71;100.00;96616.66;5035677;28;24454;-74
2022/01/16 09:15:18;;;;;;;27.77;21.42;;;;;;;-1.58;100.00;96614.97;5034487;28;24428;-74
2022/01/16 09:17:44;;;;;;;22.83;19.35;;;;;;;-1.53;100.00;96631.03;5033228;28;24428;-74
2022/01/16 09:20:13;;;;;;;22.17;18.65;;;;;;;-1.39;100.00;96631.00;5033310;28;24423;-74
2022/01/16 09:22:40;;;;;;;21.97;18.13;;;;;;;-1.29;100.00;96645.38;5033596;28;24515;-74
2022/01/16 09:25:08;;;;;;;25.00;18.85;;;;;;;-1.31;100.00;96650.47;5032922;28;24810;-75
2022/01/16 09:27:35;;;;;;;34.63;28.27;;;;;;;-1.24;100.00;96651.28;5032978;28;24436;-75
2022/01/16 09:30:02;;;;;;;29.55;24.10;;;;;;;-1.07;100.00;96647.00;5032619;28;24969;-74
2022/01/16 09:32:29;;;;;;;20.08;17.67;;;;;;;-0.87;100.00;96654.56;5033719;28;24505;-74
2022/01/16 09:34:55;;;;;;;23.17;18.97;;;;;;;-0.88;100.00;96652.03;5034072;28;24489;-74
2022/01/16 09:37:22;;;;;;;22.63;18.55;;;;;;;-0.77;100.00;96657.94;5034050;28;24999;-73
2022/01/16 09:39:50;;;;;;;25.58;18.33;;;;;;;-0.67;100.00;96644.28;5033348;28;24432;-74
2022/01/16 09:42:17;;;;;;;16.05;14.35;;;;;;;-0.37;100.00;96645.84;5034344;28;24530;-72
2022/01/16 09:44:45;;;;;;;19.92;16.17;;;;;;;-0.06;100.00;96656.66;5029328;28;24818;-73
2022/01/16 09:47:11;;;;;;;21.23;17.77;;;;;;;0.27;100.00;96659.81;5016925;28;24474;-73
2022/01/16 09:49:39;;;;;;;21.90;17.60;;;;;;;0.19;100.00;96667.53;5017015;28;24438;-72
2022/01/16 09:52:07;;;;;;;20.75;18.42;;;;;;;0.27;100.00;96685.28;5016835;28;24444;-74
2022/01/16 09:54:34;;;;;;;21.52;17.83;;;;;;;0.44;100.00;96688.53;5026754;28;24988;-73
2022/01/16 09:57:00;;;;;;;21.70;18.23;;;;;;;0.45;100.00;96687.69;5035874;28;24516;-73
2022/01/16 09:59:26;;;;;;;22.88;19.98;;;;;;;0.55;100.00;96692.69;5035757;28;24435;-73
2022/01/16 10:01:54;;;;;;;21.30;17.42;;;;;;;0.65;100.00;96674.75;5053927;28;24434;-73
2022/01/16 10:04:32;;;;;;;20.75;17.00;;;;;;;0.78;100.00;96679.72;5050469;28;24439;-73
2022/01/16 10:07:00;;;;;;;19.02;16.95;;;;;;;0.70;100.00;96678.13;5035988;28;24442;-72
2022/01/16 10:09:28;;;;;;;22.80;17.95;;;;;;;0.87;100.00;96677.09;5031539;28;24439;-73
2022/01/16 10:11:57;;;;;;;27.50;21.73;;;;;;;1.01;100.00;96680.38;5036129;28;24443;-73
2022/01/16 10:14:29;;;;;;;25.65;20.98;;;;;;;1.25;100.00;96675.84;5038326;28;24507;-73
2022/01/16 10:16:57;;;;;;;26.17;19.92;;;;;;;1.47;100.00;96677.25;5035343;28;24424;-73
2022/01/16 10:19:26;;;;;;;27.70;22.30;;;;;;;1.72;100.00;96677.78;5035013;28;24481;-73
2022/01/16 10:21:54;;;;;;;26.05;21.75;;;;;;;1.69;100.00;96676.13;5035479;28;24464;-73
2022/01/16 10:24:24;;;;;;;26.30;21.05;;;;;;;1.85;100.00;96676.75;5035486;28;24515;-74
2022/01/16 10:27:12;;;;;;;34.15;26.83;;;;;;;1.91;100.00;96670.72;5034390;28;24805;-73
2022/01/16 10:29:39;;;;;;;26.30;22.40;;;;;;;2.26;100.00;96664.22;5028471;28;25143;-75
2022/01/16 10:32:14;;;;;;;28.33;22.83;;;;;;;1.99;100.00;96671.44;5015680;28;24440;-72
2022/01/16 10:34:41;;;;;;;25.27;21.10;;;;;;;2.33;100.00;96668.38;5015430;28;24482;-73
2022/01/16 10:37:23;;;;;;;28.80;22.33;;;;;;;2.40;100.00;96669.97;5033541;28;24459;-72
2022/01/16 10:39:56;;;;;;;26.52;23.15;;;;;;;2.51;100.00;96668.06;5030312;28;24447;-74
2022/01/16 10:42:23;;;;;;;37.53;28.47;;;;;;;2.42;100.00;96676.75;5035131;28;24474;-73
2022/01/16 10:44:56;;;;;;;35.70;28.37;;;;;;;2.67;100.00;96671.22;5026273;28;24965;-74
2022/01/16 10:47:27;;;;;;;27.10;22.67;;;;;;;2.17;100.00;96685.66;5014408;28;24471;-74
2022/01/16 10:50:04;;;;;;;26.33;22.88;;;;;;;2.07;100.00;96696.88;5014911;28;24424;-74
2022/01/16 10:52:30;;;;;;;23.38;20.95;;;;;;;2.20;100.00;96703.50;5015451;28;24455;-73
2022/01/16 10:55:05;;;;;;;24.08;21.55;;;;;;;1.97;100.00;96711.53;5015642;28;24404;-74
2022/01/16 10:57:31;;;;;;;22.10;19.73;;;;;;;2.02;100.00;96716.56;5015446;28;24424;-73
2022/01/16 11:00:10;;;;;;;23.63;18.15;;;;;;;1.83;100.00;96715.97;5025493;28;24462;-74
2022/01/16 11:02:38;;;;;;;24.77;17.55;;;;;;;2.03;100.00;96703.75;5055671;28;24447;-73
2022/01/16 11:05:09;;;;;;;18.92;15.80;;;;;;;2.24;100.00;96702.59;5053803;28;24968;-74
2022/01/16 11:07:37;;;;;;;17.70;15.20;;;;;;;2.25;100.00;96700.88;5034856;28;24436;-74
2022/01/16 11:10:19;;;;;;;18.27;15.68;;;;;;;2.13;100.00;96707.88;5035404;28;24969;-74
2022/01/16 11:12:47;;;;;;;19.80;15.48;;;;;;;2.17;100.00;96695.88;5034687;28;24446;-73
2022/01/16 11:15:13;;;;;;;18.15;15.95;;;;;;;2.23;100.00;96694.97;5035510;28;24833;-73
2022/01/16 11:17:41;;;;;;;21.70;16.45;;;;;;;2.28;100.00;96691.47;5034558;28;24829;-74
2022/01/16 11:20:10;;;;;;;27.70;21.33;;;;;;;2.26;100.00;96687.22;5034191;28;24431;-74
2022/01/16 11:22:56;;;;;;;26.90;20.55;;;;;;;2.21;100.00;96697.53;5031823;28;24427;-73
2022/01/16 11:25:31;;;;;;;16.50;13.75;;;;;;;2.14;100.00;96707.00;5014961;28;24494;-73
2022/01/16 11:27:59;;;;;;;16.08;12.75;;;;;;;2.22;100.00;96704.31;5014362;28;24428;-73
2022/01/16 11:30:26;;;;;;;18.92;14.45;;;;;;;2.09;100.00;96708.78;5027760;28;24500;-73
2022/01/16 11:32:54;;;;;;;17.92;14.55;;;;;;;1.91;100.00;96704.78;5034662;28;24443;-74
2022/01/16 11:35:21;;;;;;;15.05;13.15;;;;;;;1.71;100.00;96714.41;5034879;28;24424;-73
2022/01/16 11:37:47;;;;;;;16.48;13.45;;;;;;;1.67;100.00;96715.31;5034425;28;24490;-73
2022/01/16 11:40:27;;;;;;;15.68;13.30;;;;;;;1.84;100.00;96715.09;5034472;28;24458;-73
2022/01/16 11:43:32;;;;;;;14.63;12.52;;;;;;;1.75;100.00;96715.22;5031847;28;24442;-74